58MA weather

Boston Scientific Marlboro Heliport
Marlboro, Massachusetts, United States

Public forecast

Using degrees Fahrenheit for public forecast. Weather courtesy of forecast.io.

Closest aviation weather report (METAR) to Boston Scientific Marlboro Heliport

Closest report is Laurence G Hanscom Field, 11.7 nm (21.7 km) NE. Retrieved 2020/01/25 03:51 UTC (45 minutes ago):

KBED 250351Z 00000KT 7SM OVC023 01/M01 A3038 RMK AO2 SLP305 T00061006

Closest aviation forecast (TAF) to Boston Scientific Marlboro Heliport

Closest forecast is Laurence G Hanscom Field, 11.7 nm (21.7 km) NE. Retrieved 2020-01-25 00:36 UTC (4 hours ago):

TAF KBED 242333Z 2500/2524 04003KT P6SM BKN015 FM250700 00000KT P6SM BKN012 FM251400 07006KT P6SM OVC007 FM252000 08010G20KT P6SM VCSH OVC007